Time;durP1;ratioP1;P1;durP2;ratioP2;P2;SDS_P1;SDS_P2;PMS_P1;PMS_P2;Temp;Humidity;BMP_temperature;BMP_pressure;BME280_temperature;BME280_humidity;BME280_pressure;Samples;Min_cycle;Max_cycle;Signal;HPM_P1;HPM_P2
2023/09/19 00:01:46;;;;;;;14.27;3.78;;;21.30;99.90;;;;;;5043463;28;20057;-75
2023/09/19 00:04:12;;;;;;;14.07;4.68;;;21.30;99.90;;;;;;5043028;28;20022;-74
2023/09/19 00:06:39;;;;;;;14.25;3.83;;;21.30;99.90;;;;;;5041690;28;20512;-75
2023/09/19 00:09:05;;;;;;;9.05;4.40;;;21.30;99.90;;;;;;5043963;28;20025;-75
2023/09/19 00:11:31;;;;;;;10.75;4.05;;;21.20;99.90;;;;;;5040797;28;20029;-74
2023/09/19 00:13:59;;;;;;;11.65;3.40;;;21.20;99.90;;;;;;5042785;28;20036;-75
2023/09/19 00:16:25;;;;;;;13.40;4.22;;;21.20;99.90;;;;;;5043278;28;20028;-75
2023/09/19 00:18:52;;;;;;;11.65;4.18;;;21.20;99.90;;;;;;5031460;28;20025;-74
2023/09/19 00:21:19;;;;;;;10.15;4.38;;;21.20;99.90;;;;;;5043690;28;20035;-74
2023/09/19 00:23:45;;;;;;;14.57;4.72;;;21.20;99.90;;;;;;5042007;28;20030;-74
2023/09/19 00:26:10;;;;;;;11.10;4.20;;;21.20;99.90;;;;;;5043296;28;20044;-74
2023/09/19 00:28:36;;;;;;;17.63;3.97;;;21.10;99.90;;;;;;5045560;28;20083;-75
2023/09/19 00:31:02;;;;;;;12.85;4.40;;;21.20;99.90;;;;;;5040438;28;20024;-74
2023/09/19 00:33:31;;;;;;;14.25;3.85;;;21.20;99.90;;;;;;5043236;28;20078;-75
2023/09/19 00:35:57;;;;;;;19.08;5.07;;;21.20;99.90;;;;;;5042504;28;20112;-74
2023/09/19 00:38:26;;;;;;;8.85;3.80;;;21.20;99.90;;;;;;5040924;28;20485;-75
2023/09/19 00:40:53;;;;;;;13.20;3.70;;;21.20;99.90;;;;;;5043941;28;20487;-74
2023/09/19 00:43:23;;;;;;;20.13;4.65;;;21.20;99.90;;;;;;5032627;28;20036;-75
2023/09/19 00:45:51;;;;;;;12.50;3.85;;;21.10;99.90;;;;;;5041207;28;20079;-74
2023/09/19 00:48:19;;;;;;;11.77;4.28;;;21.10;99.90;;;;;;5043498;28;20078;-75
2023/09/19 00:50:47;;;;;;;8.65;3.90;;;21.10;99.90;;;;;;5041009;28;20022;-75
2023/09/19 00:53:18;;;;;;;17.27;4.95;;;21.20;99.90;;;;;;5041717;28;20025;-75
2023/09/19 00:55:44;;;;;;;12.73;4.20;;;21.10;99.90;;;;;;5043262;28;20032;-75
2023/09/19 00:58:10;;;;;;;8.88;3.47;;;21.00;99.90;;;;;;5033406;28;20132;-75
2023/09/19 01:00:37;;;;;;;11.55;3.95;;;21.10;99.90;;;;;;5043798;28;20492;-74
2023/09/19 01:03:03;;;;;;;15.68;4.22;;;21.10;99.90;;;;;;5043583;28;20100;-74
2023/09/19 01:05:29;;;;;;;10.20;3.90;;;21.10;99.90;;;;;;5040358;28;20477;-75
2023/09/19 01:07:55;;;;;;;16.63;5.45;;;21.10;99.90;;;;;;5040003;28;20128;-75
2023/09/19 01:10:22;;;;;;;13.15;4.60;;;21.00;99.90;;;;;;5031957;28;20164;-75
2023/09/19 01:13:30;;;;;;;13.73;3.83;;;20.90;99.90;;;;;;5041791;28;20132;-75
2023/09/19 01:16:28;;;;;;;11.85;4.72;;;21.00;99.90;;;;;;5040678;28;20029;-75
2023/09/19 01:19:31;;;;;;;15.88;4.97;;;20.90;99.90;;;;;;5042023;28;20500;-74
2023/09/19 01:22:06;;;;;;;16.52;3.53;;;20.90;99.90;;;;;;5040167;28;20033;-74
2023/09/19 01:25:02;;;;;;;9.00;3.75;;;20.90;99.90;;;;;;5029905;28;20024;-74
2023/09/19 01:27:49;;;;;;;14.63;4.35;;;20.90;99.90;;;;;;5023071;28;20084;-74
2023/09/19 01:30:24;;;;;;;15.60;4.07;;;20.90;99.90;;;;;;5039652;28;20112;-75
2023/09/19 01:32:53;;;;;;;11.23;4.25;;;20.90;99.90;;;;;;5023548;28;20142;-74
2023/09/19 01:35:19;;;;;;;15.88;4.30;;;20.90;99.90;;;;;;5042529;28;20032;-75
2023/09/19 01:37:45;;;;;;;11.82;4.03;;;20.90;99.90;;;;;;5039415;28;20037;-74
2023/09/19 01:40:18;;;;;;;18.48;3.97;;;20.90;99.90;;;;;;5042008;28;20271;-74
2023/09/19 01:43:07;;;;;;;9.15;4.18;;;20.90;99.90;;;;;;5033022;28;20033;-74
2023/09/19 01:45:55;;;;;;;15.63;4.68;;;20.90;99.90;;;;;;5042131;28;20028;-75
2023/09/19 01:48:49;;;;;;;12.80;4.38;;;20.80;99.90;;;;;;5042131;28;20032;-74
2023/09/19 01:51:26;;;;;;;17.20;4.45;;;20.80;99.90;;;;;;5042560;28;20102;-74
2023/09/19 01:53:57;;;;;;;10.00;5.07;;;20.80;99.90;;;;;;5041369;28;20031;-74
2023/09/19 01:56:32;;;;;;;13.15;4.57;;;20.80;99.90;;;;;;5043793;28;20033;-75
2023/09/19 01:59:03;;;;;;;11.38;3.60;;;20.80;99.90;;;;;;5039318;28;20057;-75
2023/09/19 02:01:31;;;;;;;11.68;4.07;;;20.80;99.90;;;;;;5039306;28;20474;-74
2023/09/19 02:03:57;;;;;;;9.82;3.90;;;20.70;99.90;;;;;;5039767;28;20041;-75
2023/09/19 02:06:25;;;;;;;19.45;4.82;;;20.70;99.90;;;;;;5041412;28;20029;-75
2023/09/19 02:08:50;;;;;;;12.80;4.25;;;20.70;99.90;;;;;;5041333;28;20469;-74
2023/09/19 02:11:16;;;;;;;10.18;4.18;;;20.60;99.90;;;;;;5039463;28;20021;-75
2023/09/19 02:13:42;;;;;;;13.93;5.25;;;20.60;99.90;;;;;;5043009;28;20109;-75
2023/09/19 02:16:10;;;;;;;9.07;3.95;;;20.60;99.90;;;;;;5041695;28;20099;-75
2023/09/19 02:18:36;;;;;;;7.82;3.83;;;20.60;99.90;;;;;;5041201;28;20022;-74
2023/09/19 02:21:03;;;;;;;11.45;4.70;;;20.60;99.90;;;;;;5039481;28;20026;-74
2023/09/19 02:23:30;;;;;;;13.32;4.95;;;20.60;99.90;;;;;;5042437;28;20056;-75
2023/09/19 02:26:04;;;;;;;9.82;4.20;;;20.60;99.90;;;;;;5039759;28;20029;-75
2023/09/19 02:28:32;;;;;;;10.27;4.03;;;20.50;99.90;;;;;;5044021;28;20074;-75
2023/09/19 02:30:58;;;;;;;9.68;3.88;;;20.50;99.90;;;;;;5039095;28;20022;-74
2023/09/19 02:33:24;;;;;;;13.40;4.00;;;20.50;99.90;;;;;;5039109;28;20033;-76
2023/09/19 02:35:54;;;;;;;14.27;4.50;;;20.50;99.90;;;;;;5042251;28;20112;-75
2023/09/19 02:38:24;;;;;;;13.15;4.30;;;20.50;99.90;;;;;;5044688;28;20024;-74
2023/09/19 02:40:50;;;;;;;9.27;4.07;;;20.50;99.90;;;;;;5043135;28;20025;-75
2023/09/19 02:43:17;;;;;;;12.02;4.88;;;20.50;99.90;;;;;;5044640;28;20528;-74
2023/09/19 02:45:42;;;;;;;16.70;5.05;;;20.40;99.90;;;;;;5045030;28;20116;-75
2023/09/19 02:48:08;;;;;;;7.78;3.45;;;20.40;99.90;;;;;;5042880;28;20107;-74
2023/09/19 02:50:34;;;;;;;12.60;4.10;;;20.40;99.90;;;;;;5042492;28;20022;-75
2023/09/19 02:53:00;;;;;;;14.15;4.32;;;20.40;99.90;;;;;;5045025;28;20044;-75
2023/09/19 02:55:26;;;;;;;11.55;3.80;;;20.30;99.90;;;;;;5044180;28;20014;-75
2023/09/19 02:57:56;;;;;;;11.15;4.07;;;20.40;99.90;;;;;;5049987;28;20041;-75
2023/09/19 03:00:23;;;;;;;13.70;3.88;;;20.40;99.90;;;;;;5045753;28;20021;-75
2023/09/19 03:02:54;;;;;;;10.20;3.60;;;20.30;99.90;;;;;;5044957;28;20025;-74
2023/09/19 03:05:21;;;;;;;11.95;4.13;;;20.30;99.90;;;;;;5036045;28;20600;-75
2023/09/19 03:07:50;;;;;;;9.10;4.10;;;20.30;99.90;;;;;;5042257;28;20025;-74
2023/09/19 03:10:20;;;;;;;13.35;4.45;;;20.30;99.90;;;;;;5044392;28;20017;-75
2023/09/19 03:12:47;;;;;;;12.35;3.90;;;20.40;99.90;;;;;;5044616;28;20025;-76
2023/09/19 03:15:15;;;;;;;10.23;3.72;;;20.30;99.90;;;;;;5042380;28;20022;-75
2023/09/19 03:17:43;;;;;;;13.23;3.95;;;20.30;99.90;;;;;;5042602;28;20374;-74
2023/09/19 03:20:12;;;;;;;10.65;3.83;;;20.20;99.90;;;;;;5043660;28;20021;-75
2023/09/19 03:22:38;;;;;;;13.18;4.03;;;20.30;99.90;;;;;;5044981;28;20021;-75
2023/09/19 03:25:07;;;;;;;9.98;3.80;;;20.20;99.90;;;;;;5041853;28;20029;-74
2023/09/19 03:27:34;;;;;;;13.02;4.68;;;20.20;99.90;;;;;;5036441;28;20025;-74
2023/09/19 03:30:00;;;;;;;10.80;4.22;;;20.20;99.90;;;;;;5043103;28;20401;-74
2023/09/19 03:32:26;;;;;;;13.55;3.90;;;20.30;99.90;;;;;;5044771;28;20025;-75
2023/09/19 03:34:52;;;;;;;12.38;4.43;;;20.30;99.90;;;;;;5023478;28;20095;-75
2023/09/19 03:37:18;;;;;;;13.88;4.45;;;20.30;99.90;;;;;;5042350;28;20367;-75
2023/09/19 03:39:43;;;;;;;7.30;3.50;;;20.30;99.90;;;;;;5043455;28;20024;-74
2023/09/19 03:42:09;;;;;;;12.68;3.63;;;20.40;99.90;;;;;;5043890;28;20028;-74
2023/09/19 03:44:35;;;;;;;9.13;3.92;;;20.40;99.90;;;;;;5042002;28;20036;-74
2023/09/19 03:47:01;;;;;;;9.00;3.30;;;20.40;99.90;;;;;;5044619;28;20028;-75
2023/09/19 03:49:26;;;;;;;9.95;3.75;;;20.40;99.90;;;;;;5042233;28;20040;-74
2023/09/19 03:51:52;;;;;;;7.00;3.42;;;20.40;99.90;;;;;;5043258;28;20392;-75
2023/09/19 03:54:19;;;;;;;7.47;3.58;;;20.40;99.90;;;;;;5043695;28;20037;-75
2023/09/19 03:56:45;;;;;;;11.10;3.85;;;20.50;97.80;;;;;;5046521;28;20060;-75
2023/09/19 03:59:11;;;;;;;11.52;4.20;;;20.50;98.20;;;;;;5032327;28;20038;-75
2023/09/19 04:01:37;;;;;;;8.82;3.42;;;20.50;97.70;;;;;;5043550;28;20573;-75
2023/09/19 04:04:09;;;;;;;6.30;3.00;;;20.50;98.00;;;;;;5043253;28;20105;-75
2023/09/19 04:06:36;;;;;;;8.13;3.10;;;20.50;99.80;;;;;;5041289;28;20482;-75
2023/09/19 04:09:03;;;;;;;7.15;3.35;;;20.50;98.00;;;;;;5043610;28;20032;-74
2023/09/19 04:11:32;;;;;;;7.75;3.20;;;20.50;97.90;;;;;;5042757;28;20021;-75
2023/09/19 04:13:58;;;;;;;8.20;3.17;;;20.50;96.70;;;;;;5023586;28;20708;-74
2023/09/19 04:16:24;;;;;;;9.75;3.25;;;20.50;97.30;;;;;;5044047;28;20112;-75
2023/09/19 04:18:50;;;;;;;6.30;3.33;;;20.50;97.80;;;;;;5041816;28;20028;-75
2023/09/19 04:21:16;;;;;;;8.18;2.90;;;20.50;92.20;;;;;;5042573;28;20029;-74
2023/09/19 04:23:42;;;;;;;6.07;2.65;;;20.50;92.70;;;;;;5025348;28;20098;-76
2023/09/19 04:26:08;;;;;;;9.65;3.30;;;20.50;86.60;;;;;;5041232;28;20481;-75
2023/09/19 04:28:37;;;;;;;5.40;2.58;;;20.50;93.00;;;;;;5044022;28;20033;-76
2023/09/19 04:31:03;;;;;;;5.78;2.67;;;20.50;83.20;;;;;;5041955;28;20076;-75
2023/09/19 04:33:28;;;;;;;4.20;2.80;;;20.50;79.80;;;;;;5041835;28;20025;-75
2023/09/19 04:35:55;;;;;;;7.05;2.60;;;20.50;69.70;;;;;;5043734;28;20584;-74
2023/09/19 04:38:20;;;;;;;4.20;2.20;;;20.50;67.50;;;;;;5022887;28;20453;-75
2023/09/19 04:40:47;;;;;;;5.95;2.75;;;20.60;69.50;;;;;;5025499;28;20108;-75
2023/09/19 04:43:13;;;;;;;3.72;2.63;;;20.50;57.20;;;;;;5043672;28;20036;-75
2023/09/19 04:45:40;;;;;;;8.02;2.50;;;20.60;56.90;;;;;;5041291;28;20021;-75
2023/09/19 04:48:08;;;;;;;6.05;2.63;;;20.60;56.80;;;;;;5043753;28;20025;-75
2023/09/19 04:50:35;;;;;;;3.63;2.38;;;20.60;53.90;;;;;;5041209;28;20034;-75
2023/09/19 04:53:01;;;;;;;5.68;2.30;;;20.60;53.20;;;;;;5041914;28;20029;-75
2023/09/19 04:55:27;;;;;;;4.93;2.47;;;20.60;51.70;;;;;;5047896;28;20527;-75
2023/09/19 04:57:53;;;;;;;7.65;2.63;;;20.60;54.40;;;;;;5048754;28;20045;-75
2023/09/19 05:00:29;;;;;;;11.45;2.63;;;20.50;58.10;;;;;;5037600;28;20029;-75
2023/09/19 05:02:58;;;;;;;6.35;2.80;;;20.50;55.30;;;;;;5033813;28;20024;-75
2023/09/19 05:05:25;;;;;;;7.80;2.90;;;20.50;58.00;;;;;;5048099;28;20117;-75
2023/09/19 05:07:53;;;;;;;3.58;2.72;;;20.50;58.20;;;;;;5042494;28;20033;-75
2023/09/19 05:10:20;;;;;;;4.20;2.60;;;20.50;70.80;;;;;;5025830;28;20025;-75
2023/09/19 05:12:48;;;;;;;3.67;2.35;;;20.50;71.10;;;;;;5032011;28;20033;-75
2023/09/19 05:15:14;;;;;;;4.70;2.05;;;20.40;72.80;;;;;;5032862;28;20384;-75
2023/09/19 05:17:40;;;;;;;5.28;2.50;;;20.40;69.60;;;;;;5046080;28;20028;-75
2023/09/19 05:20:24;;;;;;;6.50;2.08;;;20.40;66.20;;;;;;5048930;28;20017;-75
2023/09/19 05:22:57;;;;;;;10.40;2.40;;;20.40;67.90;;;;;;5039729;28;20020;-75
2023/09/19 05:25:22;;;;;;;5.28;2.40;;;20.40;71.00;;;;;;5041925;28;20072;-75
2023/09/19 05:27:48;;;;;;;5.75;2.33;;;20.30;66.40;;;;;;5050483;28;20025;-75
2023/09/19 05:30:14;;;;;;;4.88;2.95;;;20.40;64.80;;;;;;5027346;28;20033;-76
2023/09/19 05:32:41;;;;;;;6.63;2.88;;;20.40;64.30;;;;;;5048177;28;20128;-76
2023/09/19 05:35:09;;;;;;;3.58;2.53;;;20.40;57.90;;;;;;5048649;28;20028;-75
2023/09/19 05:37:36;;;;;;;3.28;1.85;;;20.40;58.20;;;;;;5038419;28;20030;-75
2023/09/19 05:40:09;;;;;;;5.78;2.28;;;20.50;49.00;;;;;;5039118;28;20028;-75
2023/09/19 05:42:35;;;;;;;6.05;2.30;;;20.50;34.90;;;;;;5029183;28;20037;-74
2023/09/19 05:45:00;;;;;;;8.52;2.58;;;20.50;35.50;;;;;;5035450;28;20029;-75
2023/09/19 05:47:26;;;;;;;2.95;2.08;;;20.60;41.20;;;;;;5036291;28;20029;-75
2023/09/19 05:49:52;;;;;;;2.25;1.92;;;20.50;36.10;;;;;;5043557;28;20032;-75
2023/09/19 05:52:19;;;;;;;7.25;1.95;;;20.60;33.10;;;;;;5043282;28;20025;-74
2023/09/19 05:54:44;;;;;;;3.40;1.70;;;20.60;28.90;;;;;;5042898;28;20060;-75
2023/09/19 05:57:12;;;;;;;5.55;2.13;;;20.60;28.00;;;;;;5042071;28;20034;-75
2023/09/19 05:59:39;;;;;;;5.15;1.70;;;20.60;25.70;;;;;;5040293;28;20444;-75
2023/09/19 06:02:06;;;;;;;6.15;2.05;;;20.70;30.00;;;;;;5040128;28;20022;-74
2023/09/19 06:04:32;;;;;;;4.70;1.85;;;20.70;28.10;;;;;;5038313;28;20021;-75
2023/09/19 06:06:58;;;;;;;4.97;1.85;;;20.70;28.50;;;;;;5042031;28;20029;-74
2023/09/19 06:09:24;;;;;;;7.38;2.00;;;20.70;25.80;;;;;;5039267;28;20018;-75
2023/09/19 06:11:49;;;;;;;4.20;2.08;;;20.70;26.90;;;;;;5046741;28;20503;-74
2023/09/19 06:14:17;;;;;;;4.05;2.33;;;20.70;27.70;;;;;;5044561;28;20026;-75
2023/09/19 06:16:43;;;;;;;3.67;2.00;;;20.80;24.60;;;;;;5046629;28;20056;-75
2023/09/19 06:19:09;;;;;;;7.60;2.70;;;20.80;26.70;;;;;;5043375;28;20426;-75
2023/09/19 06:21:36;;;;;;;9.65;2.17;;;20.90;21.10;;;;;;5045415;28;20037;-75
2023/09/19 06:24:02;;;;;;;6.75;2.80;;;20.90;16.20;;;;;;5045055;28;20025;-75
2023/09/19 06:26:29;;;;;;;6.63;2.00;;;21.00;13.80;;;;;;5040842;28;20028;-75
2023/09/19 06:28:55;;;;;;;4.55;2.00;;;21.00;12.20;;;;;;5049854;28;20024;-74
2023/09/19 06:31:25;;;;;;;6.60;2.28;;;21.10;9.10;;;;;;5032611;28;20036;-75
2023/09/19 06:33:52;;;;;;;9.40;2.28;;;21.10;11.50;;;;;;5035311;28;20464;-75
2023/09/19 06:36:19;;;;;;;5.32;1.50;;;21.10;4.90;;;;;;5048137;28;20033;-75
2023/09/19 06:38:45;;;;;;;12.68;2.40;;;21.20;1.20;;;;;;5055546;28;20426;-75
2023/09/19 06:41:11;;;;;;;8.18;1.67;;;21.20;1.00;;;;;;5049874;28;20104;-75
2023/09/19 06:43:37;;;;;;;8.38;1.50;;;21.30;1.00;;;;;;5036073;28;20022;-75
2023/09/19 06:46:03;;;;;;;6.63;1.70;;;21.30;1.00;;;;;;5036888;28;20504;-75
2023/09/19 06:48:29;;;;;;;7.45;1.73;;;21.30;1.00;;;;;;5035962;28;20029;-75
2023/09/19 06:51:02;;;;;;;8.05;1.75;;;21.40;1.00;;;;;;5040042;28;20604;-75
2023/09/19 06:53:31;;;;;;;2.45;1.15;;;21.40;1.00;;;;;;5040335;28;20021;-75
2023/09/19 06:55:57;;;;;;;2.53;1.60;;;21.40;1.00;;;;;;5050504;28;20396;-75
2023/09/19 06:58:23;;;;;;;3.47;1.50;;;21.50;1.00;;;;;;5054951;28;20041;-75
2023/09/19 07:00:50;;;;;;;1.52;1.40;;;21.50;1.00;;;;;;5045408;28;20084;-75
2023/09/19 07:03:19;;;;;;;2.75;1.10;;;21.50;1.00;;;;;;5039134;28;20022;-75
2023/09/19 07:05:48;;;;;;;1.30;0.98;;;21.60;1.00;;;;;;5025895;28;20025;-75
2023/09/19 07:08:13;;;;;;;2.70;1.30;;;21.60;1.00;;;;;;5040811;28;20389;-75
2023/09/19 07:10:40;;;;;;;5.97;1.33;;;21.70;1.00;;;;;;5047141;28;20024;-75
2023/09/19 07:13:10;;;;;;;2.67;1.20;;;21.60;1.00;;;;;;5055456;28;20029;-75
2023/09/19 07:15:39;;;;;;;1.33;1.20;;;21.70;1.00;;;;;;5055589;28;20028;-75
2023/09/19 07:18:06;;;;;;;3.55;1.50;;;21.70;1.00;;;;;;5055304;28;20735;-75
2023/09/19 07:20:34;;;;;;;1.33;1.15;;;21.70;1.00;;;;;;5048085;28;20025;-75
2023/09/19 07:23:00;;;;;;;3.60;1.17;;;21.70;1.00;;;;;;5042518;28;20389;-75
2023/09/19 07:25:29;;;;;;;2.10;1.42;;;21.80;1.00;;;;;;5035037;28;20147;-74
2023/09/19 07:27:56;;;;;;;2.13;0.93;;;21.90;1.00;;;;;;5053428;28;20105;-75
2023/09/19 07:30:22;;;;;;;1.65;1.10;;;21.90;1.00;;;;;;5039824;28;20477;-75
2023/09/19 07:32:48;;;;;;;1.25;0.93;;;22.00;1.00;;;;;;5042534;28;20112;-76
2023/09/19 07:35:14;;;;;;;1.75;1.17;;;22.00;1.00;;;;;;5049062;28;20025;-75
2023/09/19 07:37:40;;;;;;;2.70;0.80;;;22.10;1.00;;;;;;5033698;28;20075;-74
2023/09/19 07:40:07;;;;;;;2.92;1.80;;;22.20;1.00;;;;;;5050512;28;20953;-75
2023/09/19 07:42:40;;;;;;;4.20;1.83;;;22.20;1.00;;;;;;5041612;28;20052;-75
2023/09/19 07:45:07;;;;;;;7.93;2.30;;;22.20;23.50;;;;;;5034720;28;20024;-75
2023/09/19 07:47:34;;;;;;;4.57;2.22;;;22.20;34.80;;;;;;5044717;28;20489;-74
2023/09/19 07:50:02;;;;;;;8.82;2.35;;;22.20;32.00;;;;;;5050483;28;20017;-75
2023/09/19 07:52:28;;;;;;;5.78;2.63;;;22.20;41.30;;;;;;5046201;28;20085;-74
2023/09/19 07:54:57;;;;;;;7.50;2.50;;;22.20;47.00;;;;;;5033249;28;20022;-75
2023/09/19 07:57:22;;;;;;;6.13;2.78;;;22.30;49.30;;;;;;5043741;28;20116;-75
2023/09/19 07:59:48;;;;;;;7.57;2.72;;;22.30;50.00;;;;;;5047016;28;20112;-75
2023/09/19 08:02:18;;;;;;;3.08;2.22;;;22.30;45.40;;;;;;5046110;28;20100;-74
2023/09/19 08:04:46;;;;;;;5.80;1.70;;;22.30;33.30;;;;;;5034109;28;20017;-75
2023/09/19 08:07:13;;;;;;;4.38;2.17;;;22.40;24.70;;;;;;5044141;28;20053;-72
2023/09/19 08:09:39;;;;;;;4.30;2.00;;;22.40;16.30;;;;;;5040980;28;20025;-72
2023/09/19 08:12:08;;;;;;;5.55;2.00;;;22.50;1.00;;;;;;5043992;28;20029;-73
2023/09/19 08:14:34;;;;;;;5.25;2.15;;;22.50;10.90;;;;;;5042710;28;20025;-72
2023/09/19 08:17:00;;;;;;;4.80;1.70;;;22.50;7.90;;;;;;5041929;28;20018;-72
2023/09/19 08:19:29;;;;;;;4.15;2.08;;;22.60;27.70;;;;;;5044201;28;20248;-73
2023/09/19 08:21:58;;;;;;;9.82;1.98;;;22.60;18.80;;;;;;5040694;28;20022;-73
2023/09/19 08:24:28;;;;;;;4.65;1.90;;;22.60;8.60;;;;;;5040429;28;20024;-73
2023/09/19 08:26:55;;;;;;;5.05;1.65;;;22.60;8.20;;;;;;5047536;28;20322;-72
2023/09/19 08:29:21;;;;;;;5.20;2.40;;;22.70;6.90;;;;;;5039093;28;20017;-72
2023/09/19 08:31:49;;;;;;;6.35;2.50;;;22.70;8.20;;;;;;5040923;28;20021;-73
2023/09/19 08:34:15;;;;;;;3.35;2.03;;;22.70;6.10;;;;;;5040154;28;20021;-73
2023/09/19 08:36:43;;;;;;;6.32;2.67;;;22.70;1.00;;;;;;5039224;28;20511;-73
2023/09/19 08:39:09;;;;;;;5.43;1.80;;;22.70;1.00;;;;;;5043911;28;20477;-73
2023/09/19 08:41:34;;;;;;;5.85;1.98;;;22.70;1.00;;;;;;5041529;28;20112;-73
2023/09/19 08:44:03;;;;;;;3.88;1.73;;;22.80;1.00;;;;;;5041946;28;20036;-73
2023/09/19 08:46:34;;;;;;;5.82;1.90;;;22.80;1.00;;;;;;5043801;28;20036;-73
2023/09/19 08:49:15;;;;;;;8.80;2.58;;;22.80;1.00;;;;;;5041071;28;20025;-73
2023/09/19 08:51:51;;;;;;;;;;;23.00;1.00;;;;;;5040842;28;20136;-72
2023/09/19 08:54:22;;;;;;;5.10;2.03;;;23.00;1.00;;;;;;5023816;28;19904;-73
2023/09/19 08:56:50;;;;;;;6.10;2.13;;;23.00;1.60;;;;;;5046626;28;20074;-72
2023/09/19 08:59:17;;;;;;;7.47;2.75;;;23.00;3.20;;;;;;5040644;28;20046;-73
2023/09/19 09:01:43;;;;;;;7.30;2.00;;;23.00;14.10;;;;;;5041850;28;20021;-72
2023/09/19 09:04:12;;;;;;;3.97;2.17;;;23.10;6.00;;;;;;5043058;28;20028;-73
2023/09/19 09:06:39;;;;;;;8.48;1.92;;;23.20;1.00;;;;;;5043355;28;20522;-73
2023/09/19 09:09:05;;;;;;;4.00;1.90;;;23.40;1.00;;;;;;5040905;28;20084;-73
2023/09/19 09:11:33;;;;;;;4.28;2.03;;;23.50;1.00;;;;;;5041471;28;20063;-73
2023/09/19 09:13:59;;;;;;;5.97;2.00;;;23.60;1.00;;;;;;5044568;28;20499;-73
2023/09/19 09:16:25;;;;;;;4.20;2.15;;;23.60;1.00;;;;;;5039790;28;20257;-72
2023/09/19 09:18:54;;;;;;;6.60;1.90;;;23.70;1.00;;;;;;5042446;28;20021;-73
2023/09/19 09:21:21;;;;;;;7.75;2.13;;;23.70;1.00;;;;;;5041690;28;20021;-73
2023/09/19 09:23:49;;;;;;;8.45;2.00;;;23.70;1.00;;;;;;5040166;28;20367;-73
2023/09/19 09:26:16;;;;;;;5.13;2.30;;;23.60;1.00;;;;;;5040880;28;20028;-72
2023/09/19 09:28:46;;;;;;;5.20;2.00;;;23.70;1.00;;;;;;5041851;28;20107;-73
2023/09/19 09:31:25;;;;;;;6.80;2.50;;;23.80;1.00;;;;;;5033075;28;20017;-73
2023/09/19 09:33:55;;;;;;;5.68;1.98;;;23.80;99.90;;;;;;5040931;28;20031;-72
2023/09/19 09:36:38;;;;;;;3.33;1.52;;;23.80;99.90;;;;;;5040399;28;20025;-73
2023/09/19 09:39:24;;;;;;;4.63;1.40;;;23.90;99.90;;;;;;5041237;28;20099;-73
2023/09/19 09:41:50;;;;;;;2.40;1.40;;;23.90;99.90;;;;;;5041253;28;20017;-72
2023/09/19 09:44:19;;;;;;;3.90;2.15;;;23.80;99.90;;;;;;5029908;28;20032;-73
2023/09/19 09:46:58;;;;;;;2.53;0.90;;;23.90;99.90;;;;;;5042582;28;20060;-72
2023/09/19 09:49:35;;;;;;;4.10;1.27;;;24.00;99.90;;;;;;5042036;28;20099;-73
2023/09/19 09:52:16;;;;;;;4.00;1.25;;;24.30;99.90;;;;;;5040469;28;20432;-73
2023/09/19 09:55:05;;;;;;;4.13;1.42;;;24.20;99.90;;;;;;5039523;28;20032;-73
2023/09/19 09:57:31;;;;;;;5.15;1.73;;;24.20;99.90;;;;;;5045653;28;20041;-72
2023/09/19 10:00:15;;;;;;;3.45;1.30;;;24.30;99.90;;;;;;5041574;28;20049;-72
2023/09/19 10:02:41;;;;;;;3.25;1.00;;;24.30;99.90;;;;;;5022097;28;20036;-72
2023/09/19 10:05:20;;;;;;;3.60;1.05;;;24.30;99.90;;;;;;5041392;28;20025;-72
2023/09/19 10:07:52;;;;;;;2.40;1.08;;;24.40;99.90;;;;;;5039473;28;20025;-73
2023/09/19 10:13:12;;;;;;;3.28;1.17;;;24.40;38.50;;;;;;5040966;28;20038;-72
2023/09/19 10:15:38;;;;;;;2.10;1.00;;;24.60;99.90;;;;;;5029905;28;20025;-72
2023/09/19 10:18:10;;;;;;;2.35;1.13;;;24.60;72.00;;;;;;5042145;28;20056;-72
2023/09/19 10:20:38;;;;;;;1.15;0.88;;;24.70;1.00;;;;;;5032256;28;20425;-72
2023/09/19 10:23:13;;;;;;;3.00;1.00;;;24.70;1.00;;;;;;5039386;28;20022;-72
2023/09/19 10:25:45;;;;;;;3.22;1.10;;;24.60;1.00;;;;;;5040407;28;20544;-73
2023/09/19 10:28:13;;;;;;;1.25;0.90;;;24.70;1.00;;;;;;5043821;28;20045;-72
2023/09/19 10:30:44;;;;;;;2.58;0.90;;;24.70;1.00;;;;;;5039273;28;20026;-72
2023/09/19 10:33:13;;;;;;;2.03;1.33;;;24.80;99.90;;;;;;5040851;28;20075;-72
2023/09/19 10:35:43;;;;;;;5.03;1.05;;;24.60;1.00;;;;;;5044883;28;20112;-72
2023/09/19 10:38:11;;;;;;;2.85;1.30;;;24.70;1.00;;;;;;5039558;28;20021;-73
2023/09/19 10:40:40;;;;;;;2.72;1.25;;;24.70;1.00;;;;;;5040695;28;20400;-72
2023/09/19 10:43:06;;;;;;;2.15;1.50;;;24.80;1.00;;;;;;5041996;28;20113;-72
2023/09/19 10:45:34;;;;;;;3.38;0.90;;;24.90;1.00;;;;;;5039210;28;20497;-72
2023/09/19 10:48:03;;;;;;;2.35;1.05;;;24.90;99.90;;;;;;5041384;28;20040;-72
2023/09/19 10:50:55;;;;;;;3.30;1.20;;;24.90;99.90;;;;;;5041007;28;20059;-73
2023/09/19 10:53:21;;;;;;;3.28;1.20;;;24.90;3.90;;;;;;5034720;28;20033;-72
2023/09/19 10:55:59;;;;;;;2.75;1.27;;;25.00;99.90;;;;;;5039020;28;20040;-72
2023/09/19 10:58:29;;;;;;;2.97;1.13;;;25.10;99.90;;;;;;5047190;28;20107;-72
2023/09/19 11:01:12;;;;;;;1.58;1.20;;;25.10;99.90;;;;;;5033265;28;20040;-72
2023/09/19 11:03:43;;;;;;;3.97;1.20;;;25.20;99.90;;;;;;5042967;28;20048;-72
2023/09/19 11:06:16;;;;;;;2.22;1.17;;;25.40;99.90;;;;;;5042701;28;20060;-72
2023/09/19 11:09:07;;;;;;;3.00;0.98;;;25.40;99.90;;;;;;5046925;28;20113;-73
2023/09/19 11:11:39;;;;;;;0.95;0.82;;;25.30;99.90;;;;;;5046134;28;20107;-72
2023/09/19 11:14:27;;;;;;;4.43;1.35;;;25.40;1.00;;;;;;5024965;28;20021;-73
2023/09/19 11:17:07;;;;;;;2.55;1.70;;;25.60;99.90;;;;;;5042805;28;20025;-73
2023/09/19 11:22:50;;;;;;;4.82;1.20;;;25.60;99.90;;;;;;5044048;28;20474;-72
2023/09/19 11:25:43;;;;;;;3.90;1.52;;;25.60;99.90;;;;;;5042373;28;20492;-72
2023/09/19 11:28:08;;;;;;;4.63;2.63;;;25.70;99.90;;;;;;5034674;28;20029;-72
2023/09/19 11:30:36;;;;;;;8.88;2.38;;;25.80;99.90;;;;;;5043726;28;20034;-72
2023/09/19 11:33:28;;;;;;;3.97;1.83;;;25.80;1.00;;;;;;5042205;28;20033;-72
2023/09/19 11:36:07;;;;;;;3.15;2.30;;;25.80;1.00;;;;;;5027180;28;20036;-73
2023/09/19 11:38:49;;;;;;;7.05;2.22;;;25.90;1.00;;;;;;5034951;28;20471;-72
2023/09/19 11:41:20;;;;;;;4.22;1.80;;;25.80;8.30;;;;;;5042923;28;20040;-73
2023/09/19 11:43:54;;;;;;;;;;;25.90;99.90;;;;;;5032562;28;20381;-72
2023/09/19 11:46:24;;;;;;;7.82;2.08;;;25.90;99.90;;;;;;5041537;28;19932;-73
2023/09/19 11:48:51;;;;;;;4.78;1.90;;;25.90;1.00;;;;;;5042614;28;20044;-73
2023/09/19 11:51:26;;;;;;;4.28;1.50;;;26.00;1.00;;;;;;5035302;28;20120;-72
2023/09/19 11:53:54;;;;;;;3.70;1.83;;;26.10;33.70;;;;;;5043005;28;20029;-73
2023/09/19 11:56:23;;;;;;;2.30;1.67;;;26.20;61.60;;;;;;5045709;28;20036;-72
2023/09/19 11:58:53;;;;;;;6.53;2.08;;;26.10;1.00;;;;;;5041292;28;20133;-72
2023/09/19 12:01:33;;;;;;;5.10;1.55;;;26.20;8.40;;;;;;5025251;28;20028;-73
2023/09/19 12:04:01;;;;;;;4.88;1.42;;;26.20;1.00;;;;;;5023789;28;20052;-72
2023/09/19 12:06:35;;;;;;;4.25;1.75;;;26.10;1.00;;;;;;5043138;28;20369;-73
2023/09/19 12:09:06;;;;;;;3.80;1.30;;;26.20;1.00;;;;;;5044297;28;20097;-72
2023/09/19 12:11:33;;;;;;;5.30;2.08;;;26.20;1.00;;;;;;5042113;28;20520;-72
2023/09/19 12:14:00;;;;;;;5.13;1.83;;;26.20;99.90;;;;;;5042413;28;20229;-72
2023/09/19 12:16:30;;;;;;;4.15;1.98;;;26.20;1.00;;;;;;5044037;28;20025;-72
2023/09/19 12:18:57;;;;;;;5.72;1.67;;;26.20;99.90;;;;;;5041288;28;20017;-72
2023/09/19 12:21:36;;;;;;;8.23;2.78;;;26.20;60.00;;;;;;5042859;28;20096;-72
2023/09/19 12:24:16;;;;;;;3.38;2.00;;;26.40;1.00;;;;;;5041047;28;20128;-73
2023/09/19 12:26:47;;;;;;;4.30;1.85;;;26.40;1.00;;;;;;5045964;28;20036;-72
2023/09/19 12:29:22;;;;;;;7.55;2.10;;;26.30;1.00;;;;;;5023502;28;20132;-72
2023/09/19 12:31:59;;;;;;;7.03;2.10;;;26.30;1.00;;;;;;5041371;28;20026;-72
2023/09/19 12:34:29;;;;;;;2.95;1.77;;;26.30;1.00;;;;;;5042716;28;20408;-72
2023/09/19 12:37:30;;;;;;;3.97;2.10;;;26.30;1.00;;;;;;5042989;28;20031;-73
2023/09/19 12:40:28;;;;;;;5.32;1.67;;;26.30;99.90;;;;;;5031130;28;20036;-73
2023/09/19 12:43:04;;;;;;;9.88;2.17;;;26.30;99.90;;;;;;5041720;28;20061;-72
2023/09/19 12:45:37;;;;;;;5.20;2.03;;;26.40;99.90;;;;;;5022869;28;20168;-73
2023/09/19 12:48:22;;;;;;;5.10;1.60;;;26.50;99.90;;;;;;5041831;28;20036;-72
2023/09/19 12:51:34;;;;;;;4.15;1.98;;;26.50;99.90;;;;;;5042102;28;20022;-72
2023/09/19 12:54:00;;;;;;;3.58;1.77;;;26.60;99.90;;;;;;4987060;28;20023;-72
2023/09/19 12:56:27;;;;;;;3.42;2.10;;;26.50;99.90;;;;;;5033804;28;20037;-72
2023/09/19 12:58:53;;;;;;;8.93;2.10;;;26.60;99.90;;;;;;5040576;28;20132;-72
2023/09/19 13:01:20;;;;;;;6.97;2.35;;;26.60;99.90;;;;;;5043421;28;20142;-73
2023/09/19 13:04:06;;;;;;;3.15;1.60;;;26.60;99.90;;;;;;5040955;28;20049;-73
2023/09/19 13:06:40;;;;;;;2.40;1.90;;;26.70;99.90;;;;;;5040458;28;20026;-72
2023/09/19 13:09:10;;;;;;;9.18;2.20;;;26.80;99.90;;;;;;5040980;28;20029;-72